Time;durP1;ratioP1;P1;durP2;ratioP2;P2;SDS_P1;SDS_P2;PMS_P1;PMS_P2;Temp;Humidity;BMP_temperature;BMP_pressure;BME280_temperature;BME280_humidity;BME280_pressure;Samples;Min_cycle;Max_cycle;Signal;HPM_P1;HPM_P2
2022/01/06 00:04:38;;;;;;;;;;;4.00;99.90;;;;;;5189999;27;19926;-79
2022/01/06 00:07:04;;;;;;;;;;;4.00;99.90;;;;;;5153781;27;19923;-78
2022/01/06 00:09:31;;;;;;;;;;;4.00;99.90;;;;;;5139816;27;19935;-78
2022/01/06 00:11:58;;;;;;;;;;;4.00;99.90;;;;;;5116462;28;19931;-82
2022/01/06 00:14:38;;;;;;;;;;;4.00;99.90;;;;;;5025310;28;19929;-84
2022/01/06 00:17:20;;;;;;;;;;;4.00;99.90;;;;;;4878470;29;19936;-81
2022/01/06 00:27:55;;;;;;;;;;;4.00;99.90;;;;;;5173985;27;19925;-81
2022/01/06 00:30:22;;;;;;;;;;;4.00;99.90;;;;;;5137023;27;19930;-82
2022/01/06 00:32:49;;;;;;;;;;;4.00;99.90;;;;;;5105576;28;19939;-84
2022/01/06 00:35:15;;;;;;;;;;;4.00;99.90;;;;;;5045855;28;19948;-83
2022/01/06 00:37:42;;;;;;;;;;;4.00;99.90;;;;;;4934202;28;19927;-80
2022/01/06 00:40:09;;;;;;;;;;;4.00;99.90;;;;;;4769782;29;19938;-83
2022/01/06 00:42:35;;;;;;;;;;;4.00;99.90;;;;;;4586950;30;19935;-82
2022/01/06 00:50:08;;;;;;;;;;;3.90;99.90;;;;;;5175122;27;19925;-82
2022/01/06 00:52:35;;;;;;;;;;;3.70;99.90;;;;;;5140222;27;19931;-82
2022/01/06 00:55:02;;;;;;;;;;;3.50;99.90;;;;;;5116181;27;19923;-81
2022/01/06 00:57:29;;;;;;;;;;;3.30;99.90;;;;;;5103124;28;19931;-86
2022/01/06 00:59:55;;;;;;;;;;;3.10;99.90;;;;;;5014239;28;19927;-79
2022/01/06 01:02:22;;;;;;;;;;;3.10;99.90;;;;;;4817888;29;19930;-81
2022/01/06 01:04:48;;;;;;;;;;;3.00;99.90;;;;;;4685602;29;19939;-81
2022/01/06 01:12:23;;;;;;;;;;;2.90;99.90;;;;;;5163788;27;19926;-83
2022/01/06 01:14:56;;;;;;;;;;;2.90;99.90;;;;;;5094398;28;19924;-85
2022/01/06 01:17:25;;;;;;;;;;;3.00;99.90;;;;;;5049335;28;19932;-83
2022/01/06 01:19:52;;;;;;;;;;;2.90;99.90;;;;;;4987547;28;19933;-81
2022/01/06 01:22:18;;;;;;;;;;;2.90;99.90;;;;;;4939234;28;19928;-81
2022/01/06 01:24:45;;;;;;;;;;;2.80;99.90;;;;;;4742698;29;19939;-83
2022/01/06 01:27:14;;;;;;;;;;;2.70;99.90;;;;;;4574370;30;19954;-80
2022/01/06 01:34:46;;;;;;;;;;;2.50;99.90;;;;;;5185007;27;19926;-78
2022/01/06 01:37:13;;;;;;;;;;;2.40;99.90;;;;;;5140546;27;19923;-82
2022/01/06 01:39:39;;;;;;;;;;;2.30;99.90;;;;;;5135959;27;19923;-83
2022/01/06 01:42:06;;;;;;;;;;;2.20;99.90;;;;;;5122336;28;19924;-82
2022/01/06 01:44:34;;;;;;;;;;;2.20;99.90;;;;;;5053971;28;19926;-80
2022/01/06 01:47:03;;;;;;;;;;;2.20;99.90;;;;;;4805787;29;19930;-80
2022/01/06 01:49:46;;;;;;;;;;;2.10;99.90;;;;;;4571253;30;19936;-82
2022/01/06 01:57:18;;;;;;;;;;;2.10;99.90;;;;;;5173836;27;19926;-82
2022/01/06 01:59:45;;;;;;;;;;;2.10;99.90;;;;;;5136882;27;19923;-82
2022/01/06 02:02:11;;;;;;;;;;;2.20;99.90;;;;;;5108561;28;19931;-82
2022/01/06 02:04:38;;;;;;;;;;;2.20;99.90;;;;;;5092437;28;19930;-80
2022/01/06 02:07:05;;;;;;;;;;;2.30;99.90;;;;;;5050415;28;19927;-83
2022/01/06 02:09:31;;;;;;;;;;;2.30;99.90;;;;;;4887823;28;19937;-80
2022/01/06 02:11:58;;;;;;;;;;;2.30;99.90;;;;;;4615757;29;19943;-84
2022/01/06 02:19:31;;;;;;;;;;;2.20;99.90;;;;;;5173980;27;19926;-83
2022/01/06 02:21:58;;;;;;;;;;;2.20;99.90;;;;;;5135597;27;19939;-80
2022/01/06 02:24:25;;;;;;;;;;;2.30;99.90;;;;;;5121657;28;19928;-81
2022/01/06 02:26:51;;;;;;;;;;;2.30;99.90;;;;;;5088326;28;19948;-78
2022/01/06 02:29:19;;;;;;;;;;;2.30;99.90;;;;;;4967890;28;19934;-81
2022/01/06 02:31:46;;;;;;;;;;;2.30;99.90;;;;;;4814193;29;19930;-80
2022/01/06 02:34:13;;;;;;;;;;;2.30;99.90;;;;;;4607781;30;19935;-81
2022/01/06 02:41:45;;;;;;;;;;;2.40;99.90;;;;;;5168955;27;19926;-84
2022/01/06 02:44:11;;;;;;;;;;;2.40;99.90;;;;;;5100793;27;19924;-81
2022/01/06 02:46:40;;;;;;;;;;;2.40;99.90;;;;;;5098337;28;19932;-81
2022/01/06 02:49:09;;;;;;;;;;;2.40;99.90;;;;;;5057951;28;19924;-84
2022/01/06 02:51:36;;;;;;;;;;;2.40;99.90;;;;;;4997774;28;19927;-84
2022/01/06 02:54:02;;;;;;;;;;;2.40;99.90;;;;;;4887915;29;19928;-82
2022/01/06 02:56:32;;;;;;;;;;;2.40;99.90;;;;;;4660384;29;19935;-84
2022/01/06 03:04:03;;;;;;;;;;;2.30;99.90;;;;;;5173441;27;19925;-81
2022/01/06 03:06:29;;;;;;;;;;;2.30;99.90;;;;;;5137389;27;19946;-83
2022/01/06 03:08:56;;;;;;;;;;;2.30;99.90;;;;;;5128364;27;20513;-80
2022/01/06 03:11:25;;;;;;;;;;;2.30;99.90;;;;;;5070142;28;19924;-80
2022/01/06 03:13:52;;;;;;;;;;;2.30;99.90;;;;;;4950830;28;19932;-83
2022/01/06 03:16:18;;;;;;;;;;;2.30;99.90;;;;;;4794911;29;19934;-83
2022/01/06 03:18:45;;;;;;;;;;;2.20;99.90;;;;;;4658289;30;19937;-81
2022/01/06 03:26:16;;;;;;;;;;;2.10;99.90;;;;;;5173775;27;19926;-83
2022/01/06 03:28:43;;;;;;;;;;;2.10;99.90;;;;;;5136685;27;19927;-82
2022/01/06 03:31:09;;;;;;;;;;;2.10;99.90;;;;;;5118385;27;19930;-80
2022/01/06 03:33:36;;;;;;;;;;;2.10;99.90;;;;;;5092231;28;19924;-81
2022/01/06 03:36:02;;;;;;;;;;;2.00;99.90;;;;;;5057466;28;19925;-78
2022/01/06 03:38:29;;;;;;;;;;;2.00;99.90;;;;;;4967795;28;19936;-79
2022/01/06 03:40:55;;;;;;;;;;;1.90;99.90;;;;;;4754227;29;19933;-79
2022/01/06 03:48:26;;;;;;;;;;;1.70;99.90;;;;;;5173698;27;19925;-83
2022/01/06 03:50:53;;;;;;;;;;;1.60;99.90;;;;;;5121110;27;19930;-83
2022/01/06 03:53:19;;;;;;;;;;;1.60;99.90;;;;;;5116048;28;19934;-81
2022/01/06 03:55:46;;;;;;;;;;;1.50;99.90;;;;;;5085785;28;19924;-80
2022/01/06 03:58:13;;;;;;;;;;;1.40;99.90;;;;;;5054106;28;19932;-80
2022/01/06 04:00:39;;;;;;;;;;;1.30;99.90;;;;;;4948598;28;19928;-82
2022/01/06 04:03:06;;;;;;;;;;;1.20;99.90;;;;;;4726704;29;19937;-81
2022/01/06 04:12:39;;;;;;;;;;;1.10;99.90;;;;;;5160643;27;19930;-85
2022/01/06 04:15:09;;;;;;;;;;;1.00;99.90;;;;;;5133907;27;19931;-84
2022/01/06 04:17:35;;;;;;;;;;;1.00;99.90;;;;;;5116342;27;19923;-83
2022/01/06 04:20:03;;;;;;;;;;;0.90;99.90;;;;;;5098805;28;19924;-84
2022/01/06 04:22:29;;;;;;;;;;;0.90;99.90;;;;;;4964138;28;19934;-83
2022/01/06 04:24:56;;;;;;;;;;;0.80;99.90;;;;;;4819609;29;19938;-82
2022/01/06 04:27:23;;;;;;;;;;;0.90;99.90;;;;;;4494039;30;19939;-83
2022/01/06 04:34:21;;;;;;;;;;;0.80;99.90;;;;;;5176868;27;19930;-79
2022/01/06 04:36:51;;;;;;;;;;;0.70;99.90;;;;;;5139027;27;19930;-80
2022/01/06 04:39:19;;;;;;;;;;;0.70;99.90;;;;;;5124093;27;19935;-80
2022/01/06 04:41:45;;;;;;;;;;;0.70;99.90;;;;;;5094762;28;19939;-80
2022/01/06 04:44:12;;;;;;;;;;;0.60;99.90;;;;;;4998928;28;19928;-80
2022/01/06 04:46:38;;;;;;;;;;;0.60;99.90;;;;;;4889097;29;19929;-81
2022/01/06 04:49:05;;;;;;;;;;;0.60;99.90;;;;;;4707581;29;19933;-78
2022/01/06 04:56:37;;;;;;;;;;;0.40;99.90;;;;;;5174099;27;19926;-79
2022/01/06 04:59:05;;;;;;;;;;;0.40;99.90;;;;;;5138762;27;19930;-79
2022/01/06 05:01:31;;;;;;;;;;;0.40;99.90;;;;;;5113915;27;19932;-80
2022/01/06 05:03:58;;;;;;;;;;;0.40;99.90;;;;;;5039150;28;19926;-81
2022/01/06 05:06:25;;;;;;;;;;;0.40;99.90;;;;;;4915933;28;19929;-82
2022/01/06 05:08:51;;;;;;;;;;;0.40;99.90;;;;;;4716602;29;19933;-84
2022/01/06 05:11:18;;;;;;;;;;;0.30;99.90;;;;;;4513180;31;19942;-84
2022/01/06 05:18:50;;;;;;;;;;;0.30;99.90;;;;;;5173765;27;19926;-85
2022/01/06 05:21:17;;;;;;;;;;;0.20;99.90;;;;;;5139912;27;19930;-81
2022/01/06 05:23:43;;;;;;;;;;;0.20;99.90;;;;;;5094351;28;19931;-84
2022/01/06 05:26:10;;;;;;;;;;;0.20;99.90;;;;;;5059071;28;19925;-84
2022/01/06 05:28:37;;;;;;;;;;;0.20;99.90;;;;;;5008619;28;19931;-86
2022/01/06 05:31:04;;;;;;;;;;;0.20;99.90;;;;;;4821931;29;19931;-81
2022/01/06 05:33:30;;;;;;;;;;;0.10;99.90;;;;;;4530933;30;19933;-80
2022/01/06 05:40:57;;;;;;;;;;;0.10;99.90;;;;;;5176586;27;19926;-85
2022/01/06 05:43:25;;;;;;;;;;;0.00;99.90;;;;;;5077080;28;19925;-81
2022/01/06 05:45:53;;;;;;;;;;;0.00;99.90;;;;;;5044693;28;19939;-82
2022/01/06 05:48:20;;;;;;;;;;;0.00;99.90;;;;;;5040499;28;19928;-83
2022/01/06 05:50:48;;;;;;;;;;;0.10;99.90;;;;;;4988912;28;19931;-89
2022/01/06 05:53:15;;;;;;;;;;;0.00;99.90;;;;;;4808889;29;19931;-84
2022/01/06 05:55:41;;;;;;;;;;;0.00;99.90;;;;;;4473544;30;19962;-85
2022/01/06 06:02:40;;;;;;;;;;;-0.10;99.90;;;;;;5150614;27;19927;-85
2022/01/06 06:05:07;;;;;;;;;;;-0.10;99.90;;;;;;5094418;27;19924;-83
2022/01/06 06:07:33;;;;;;;;;;;-0.10;99.90;;;;;;5098269;27;19931;-84
2022/01/06 06:10:00;;;;;;;;;;;-0.10;99.90;;;;;;5100941;28;19940;-83
2022/01/06 06:12:26;;;;;;;;;;;-0.10;99.90;;;;;;4990136;28;19927;-83
2022/01/06 06:14:53;;;;;;;;;;;-0.10;99.90;;;;;;4863104;29;19937;-81
2022/01/06 06:17:19;;;;;;;;;;;-0.10;99.90;;;;;;4635656;30;19935;-80
2022/01/06 06:24:50;;;;;;;;;;;-0.10;99.90;;;;;;5198890;27;19925;-79
2022/01/06 06:27:17;;;;;;;;;;;-0.10;99.90;;;;;;5167483;27;19931;-81
2022/01/06 06:29:44;;;;;;;;;;;-0.10;99.90;;;;;;5154381;27;19935;-82
2022/01/06 06:32:10;;;;;;;;;;;-0.10;99.90;;;;;;5124952;27;19931;-81
2022/01/06 06:34:37;;;;;;;;;;;-0.10;99.90;;;;;;5035287;28;19926;-82
2022/01/06 06:37:03;;;;;;;;;;;-0.10;99.90;;;;;;4905954;28;19941;-84
2022/01/06 06:39:30;;;;;;;;;;;-0.10;99.90;;;;;;4697094;29;19933;-83
2022/01/06 06:41:57;;;;;;;;;;;-0.10;99.90;;;;;;4494170;31;19936;-84
2022/01/06 06:49:02;;;;;;;;;;;-0.20;99.90;;;;;;5173832;27;19925;-82
2022/01/06 06:51:29;;;;;;;;;;;-0.10;99.90;;;;;;5134508;27;19930;-80
2022/01/06 06:53:55;;;;;;;;;;;-0.20;99.90;;;;;;5111386;28;19938;-83
2022/01/06 06:56:22;;;;;;;;;;;-0.20;99.90;;;;;;5050778;28;19925;-81
2022/01/06 06:58:48;;;;;;;;;;;-0.20;99.90;;;;;;4951405;28;19928;-83
2022/01/06 07:01:15;;;;;;;;;;;-0.20;99.90;;;;;;4841998;29;19930;-83
2022/01/06 07:03:42;;;;;;;;;;;-0.10;99.90;;;;;;4619513;30;19947;-81
2022/01/06 07:11:12;;;;;;;;;;;-0.10;99.90;;;;;;5184448;27;19926;-80
2022/01/06 07:13:39;;;;;;;;;;;-0.10;99.90;;;;;;5098418;28;19924;-80
2022/01/06 07:16:05;;;;;;;;;;;-0.10;99.90;;;;;;5098270;27;19927;-82
2022/01/06 07:18:32;;;;;;;;;;;-0.10;99.90;;;;;;5107422;27;19932;-80
2022/01/06 07:20:59;;;;;;;;;;;-0.10;99.90;;;;;;5057537;28;19933;-81
2022/01/06 07:23:26;;;;;;;;;;;-0.10;99.90;;;;;;4883246;29;19929;-79
2022/01/06 07:25:52;;;;;;;;;;;-0.10;99.90;;;;;;4651126;29;19955;-83
2022/01/06 07:33:24;;;;;;;;;;;0.00;99.90;;;;;;5155064;27;19941;-83
2022/01/06 07:35:51;;;;;;;;;;;0.00;99.90;;;;;;5114848;27;19931;-81
2022/01/06 07:38:18;;;;;;;;;;;0.00;99.90;;;;;;5082617;28;19932;-82
2022/01/06 07:40:44;;;;;;;;;;;0.00;99.90;;;;;;5066621;28;19925;-82
2022/01/06 07:43:11;;;;;;;;;;;0.20;99.90;;;;;;5021838;28;19927;-79
2022/01/06 07:45:37;;;;;;;;;;;0.40;99.90;;;;;;4850555;29;19930;-80
2022/01/06 07:48:15;;;;;;;;;;;0.70;99.90;;;;;;4564350;30;19947;-83
2022/01/06 07:55:47;;;;;;;;;;;1.70;99.90;;;;;;5174934;27;19926;-83
2022/01/06 07:58:13;;;;;;;;;;;2.00;99.90;;;;;;5138010;27;19930;-84
2022/01/06 08:00:40;;;;;;;;;;;2.00;99.90;;;;;;5137370;27;19931;-81
2022/01/06 08:03:06;;;;;;;;;;;2.30;99.90;;;;;;5119057;27;19923;-80
2022/01/06 08:05:33;;;;;;;;;;;2.00;99.90;;;;;;5059534;28;19933;-83
2022/01/06 08:08:00;;;;;;;;;;;1.80;99.90;;;;;;4879504;28;19929;-83
2022/01/06 08:10:26;;;;;;;;;;;2.30;99.90;;;;;;4571515;30;19959;-81
2022/01/06 08:17:58;;;;;;;;;;;3.50;99.90;;;;;;5174078;27;19925;-81
2022/01/06 08:20:24;;;;;;;;;;;4.00;99.90;;;;;;5128344;27;19923;-81
2022/01/06 08:22:51;;;;;;;;;;;4.70;99.90;;;;;;5115116;27;19932;-80
2022/01/06 08:25:18;;;;;;;;;;;5.30;99.90;;;;;;5048836;28;19933;-83
2022/01/06 08:27:45;;;;;;;;;;;5.40;99.90;;;;;;5005177;28;19927;-82
2022/01/06 08:30:11;;;;;;;;;;;5.40;99.90;;;;;;4835045;29;19937;-81
2022/01/06 08:32:38;;;;;;;;;;;5.40;99.90;;;;;;4609644;30;19940;-83
2022/01/06 08:40:11;;;;;;;;;;;6.50;99.90;;;;;;5176611;27;19926;-81
2022/01/06 08:42:38;;;;;;;;;;;6.30;99.90;;;;;;5108090;27;19931;-82
2022/01/06 08:45:06;;;;;;;;;;;7.30;99.90;;;;;;5110248;28;19931;-85
2022/01/06 08:47:33;;;;;;;;;;;7.10;99.90;;;;;;5107267;28;19935;-84
2022/01/06 08:49:59;;;;;;;;;;;7.00;99.90;;;;;;5003302;28;19931;-83
2022/01/06 08:52:26;;;;;;;;;;;6.70;99.90;;;;;;4844257;29;19937;-82
2022/01/06 08:54:52;;;;;;;;;;;6.60;99.90;;;;;;4650594;30;19941;-81
2022/01/06 09:02:25;;;;;;;;;;;7.40;99.90;;;;;;5169039;27;19925;-83
2022/01/06 09:04:52;;;;;;;;;;;7.20;99.90;;;;;;5131081;27;19924;-83
2022/01/06 09:07:19;;;;;;;;;;;7.60;99.90;;;;;;5110275;28;19931;-83
2022/01/06 09:09:46;;;;;;;;;;;7.90;99.90;;;;;;5068364;28;19925;-80
2022/01/06 09:12:17;;;;;;;;;;;8.10;99.90;;;;;;4937447;28;19928;-80
2022/01/06 09:14:43;;;;;;;;;;;8.10;99.90;;;;;;4733459;29;19933;-81
2022/01/06 09:17:10;;;;;;;;;;;8.50;99.90;;;;;;4443086;31;19940;-81
2022/01/06 09:24:41;;;;;;;;;;;10.40;99.90;;;;;;5191465;27;19925;-80
2022/01/06 09:27:08;;;;;;;;;;;11.10;99.90;;;;;;5152131;27;19923;-79
2022/01/06 09:29:35;;;;;;;;;;;12.20;99.90;;;;;;5146850;27;19931;-78
2022/01/06 09:32:02;;;;;;;;;;;12.20;99.50;;;;;;5118054;28;19939;-81
2022/01/06 09:34:28;;;;;;;;;;;12.10;98.60;;;;;;5040893;28;19926;-81
2022/01/06 09:36:55;;;;;;;;;;;11.70;98.50;;;;;;4894619;28;19936;-82
2022/01/06 09:39:21;;;;;;;;;;;11.00;99.90;;;;;;4661139;29;19941;-83
2022/01/06 09:46:55;;;;;;;;;;;9.90;99.90;;;;;;5175920;27;19926;-81
2022/01/06 09:49:22;;;;;;;;;;;9.60;99.90;;;;;;5130468;27;19928;-79
2022/01/06 09:51:48;;;;;;;;;;;9.90;99.90;;;;;;5121191;28;19924;-81
2022/01/06 09:54:15;;;;;;;;;;;9.50;99.90;;;;;;5069718;28;19930;-79
2022/01/06 09:56:42;;;;;;;;;;;9.70;99.90;;;;;;4962377;28;19928;-82
2022/01/06 09:59:08;;;;;;;;;;;10.50;99.90;;;;;;4754306;29;19938;-84
2022/01/06 10:01:35;;;;;;;;;;;10.70;99.90;;;;;;4596335;30;19942;-81
2022/01/06 10:09:08;;;;;;;;;;;12.20;98.30;;;;;;5175565;27;19926;-82
2022/01/06 10:11:35;;;;;;;;;;;12.20;98.20;;;;;;5154584;27;19930;-84
2022/01/06 10:14:05;;;;;;;;;;;13.00;96.60;;;;;;5122251;28;19932;-81
2022/01/06 10:16:32;;;;;;;;;;;13.70;94.20;;;;;;5055201;28;19936;-82
2022/01/06 10:19:00;;;;;;;;;;;14.20;91.20;;;;;;4930641;28;19929;-81
2022/01/06 10:21:30;;;;;;;;;;;14.10;90.50;;;;;;4733298;29;19932;-81
2022/01/06 10:24:00;;;;;;;;;;;14.30;92.20;;;;;;4411090;31;19939;-83
2022/01/06 10:30:54;;;;;;;;;;;14.80;81.00;;;;;;5174946;27;19926;-84
2022/01/06 10:33:23;;;;;;;;;;;14.00;81.00;;;;;;5118271;27;19923;-81
2022/01/06 10:35:50;;;;;;;;;;;14.10;82.30;;;;;;5091280;28;19931;-85
2022/01/06 10:38:25;;;;;;;;;;;14.10;81.60;;;;;;4992236;28;19930;-83
2022/01/06 10:40:51;;;;;;;;;;;14.70;77.40;;;;;;4906623;29;19927;-84
2022/01/06 10:43:18;;;;;;;;;;;13.90;77.50;;;;;;4860209;29;19945;-81
2022/01/06 10:45:44;;;;;;;;;;;12.90;80.70;;;;;;4686719;29;19933;-83
2022/01/06 10:50:56;;;;;;;;;;;11.90;85.60;;;;;;5153040;27;19942;-82
2022/01/06 10:53:23;;;;;;;;;;;11.60;87.10;;;;;;5102161;28;19925;-83
2022/01/06 10:55:50;;;;;;;;;;;11.30;89.40;;;;;;5058626;28;19932;-84
2022/01/06 10:58:17;;;;;;;;;;;10.90;90.30;;;;;;5020387;28;19940;-81
2022/01/06 11:00:45;;;;;;;;;;;10.30;92.60;;;;;;4911937;28;19928;-81
2022/01/06 11:03:13;;;;;;;;;;;10.50;92.10;;;;;;4790700;29;19937;-81
2022/01/06 11:05:40;;;;;;;;;;;10.50;91.50;;;;;;4666296;30;19933;-82
2022/01/06 11:11:25;;;;;;;;;;;10.40;90.60;;;;;;5174717;27;19926;-84
2022/01/06 11:13:52;;;;;;;;;;;9.50;93.50;;;;;;5071132;28;19924;-81
2022/01/06 11:16:20;;;;;;;;;;;9.80;94.40;;;;;;5052120;28;20015;-83
2022/01/06 11:18:48;;;;;;;;;;;9.80;92.40;;;;;;5032269;28;19925;-82
2022/01/06 11:21:16;;;;;;;;;;;9.70;93.70;;;;;;4917781;28;19928;-84
2022/01/06 11:23:43;;;;;;;;;;;9.90;92.40;;;;;;4750193;29;19932;-83
2022/01/06 11:26:12;;;;;;;;;;;9.90;92.10;;;;;;4479795;30;19938;-81
2022/01/06 11:33:03;;;;;;;;;;;10.10;90.90;;;;;;5165121;27;19925;-82
2022/01/06 11:35:29;;;;;;;;;;;9.80;91.40;;;;;;5142518;27;19923;-81
2022/01/06 11:37:56;;;;;;;;;;;9.70;90.60;;;;;;5118400;27;19938;-82
2022/01/06 11:40:29;;;;;;;;;;;9.80;90.00;;;;;;5099682;28;19925;-80
2022/01/06 11:42:55;;;;;;;;;;;9.90;89.90;;;;;;5025563;28;19934;-80
2022/01/06 11:45:22;;;;;;;;;;;10.20;90.10;;;;;;4870850;29;19929;-81
2022/01/06 11:47:59;;;;;;;;;;;10.60;88.10;;;;;;4766613;29;19938;-80
2022/01/06 11:55:33;;;;;;;;;;;10.10;83.50;;;;;;5184395;27;19925;-79
2022/01/06 11:58:07;;;;;;;;;;;9.80;84.50;;;;;;5127618;27;19923;-79
2022/01/06 12:00:35;;;;;;;;;;;9.80;83.10;;;;;;5104536;28;19924;-84
2022/01/06 12:03:03;;;;;;;;;;;9.60;86.40;;;;;;5050821;28;19925;-81
2022/01/06 12:05:40;;;;;;;;;;;9.70;85.70;;;;;;4906731;29;19928;-84
2022/01/06 12:08:07;;;;;;;;;;;9.60;83.70;;;;;;4790600;29;19938;-81
2022/01/06 12:10:38;;;;;;;;;;;9.30;86.60;;;;;;4652686;30;19934;-80
2022/01/06 12:18:11;;;;;;;;;;;8.40;86.60;;;;;;5174818;27;19926;-84
2022/01/06 12:20:38;;;;;;;;;;;8.20;87.70;;;;;;5122061;27;19925;-81
2022/01/06 12:23:05;;;;;;;;;;;8.00;87.60;;;;;;5112376;28;19968;-83
2022/01/06 12:25:32;;;;;;;;;;;7.80;88.10;;;;;;5089881;28;19925;-82
2022/01/06 12:27:58;;;;;;;;;;;7.60;86.00;;;;;;5023083;28;19942;-85
2022/01/06 12:30:26;;;;;;;;;;;7.30;86.10;;;;;;4850644;29;19946;-80
2022/01/06 12:33:00;;;;;;;;;;;7.10;86.50;;;;;;4573538;30;20020;-82
2022/01/06 12:40:41;;;;;;;;;;;6.30;88.90;;;;;;5173884;27;19926;-80
2022/01/06 12:43:15;;;;;;;;;;;6.20;90.80;;;;;;5144935;27;19924;-80
2022/01/06 12:45:43;;;;;;;;;;;6.20;90.60;;;;;;5098864;27;19931;-82
2022/01/06 12:48:10;;;;;;;;;;;6.10;90.10;;;;;;5075688;28;19925;-83
2022/01/06 12:50:43;;;;;;;;;;;5.90;90.50;;;;;;4984807;28;19926;-82
2022/01/06 12:53:10;;;;;;;;;;;5.90;90.70;;;;;;4885981;29;19935;-82
2022/01/06 12:55:42;;;;;;;;;;;5.90;91.00;;;;;;4699024;29;19932;-80
2022/01/06 13:03:09;;;;;;;;;;;5.60;89.40;;;;;;5158101;27;19926;-81
2022/01/06 13:05:36;;;;;;;;;;;5.40;88.90;;;;;;5119397;27;19931;-84
2022/01/06 13:08:04;;;;;;;;;;;5.00;89.00;;;;;;5115607;27;19931;-81
2022/01/06 13:10:30;;;;;;;;;;;5.00;90.00;;;;;;5107243;28;19947;-80
2022/01/06 13:13:04;;;;;;;;;;;5.00;90.30;;;;;;5041124;28;19926;-81
2022/01/06 13:15:32;;;;;;;;;;;4.90;89.80;;;;;;4802773;29;19938;-83
2022/01/06 13:17:59;;;;;;;;;;;5.00;90.30;;;;;;4474019;30;19942;-83
2022/01/06 13:23:41;;;;;;;;;;;4.70;88.50;;;;;;5159115;27;19930;-81
2022/01/06 13:26:10;;;;;;;;;;;4.70;88.50;;;;;;5080539;28;19928;-81
2022/01/06 13:28:37;;;;;;;;;;;4.50;86.00;;;;;;5071253;28;19924;-83
2022/01/06 13:31:14;;;;;;;;;;;4.40;88.40;;;;;;5041779;28;19924;-83
2022/01/06 13:33:41;;;;;;;;;;;4.30;87.00;;;;;;4982701;28;19927;-80
2022/01/06 13:36:09;;;;;;;;;;;4.20;86.10;;;;;;4790241;29;19938;-83
2022/01/06 13:38:37;;;;;;;;;;;4.20;86.70;;;;;;4565717;30;19946;-81
2022/01/06 13:45:38;;;;;;;;;;;4.00;87.10;;;;;;5176068;27;19926;-84
2022/01/06 13:48:30;;;;;;;;;;;4.00;87.40;;;;;;5120543;27;19923;-82
2022/01/06 13:51:08;;;;;;;;;;;3.90;87.00;;;;;;5084288;28;19932;-82
2022/01/06 13:53:37;;;;;;;;;;;3.80;87.30;;;;;;5017846;28;19943;-79
2022/01/06 13:56:06;;;;;;;;;;;3.80;87.80;;;;;;4891187;29;19929;-81
2022/01/06 13:58:33;;;;;;;;;;;3.80;86.20;;;;;;4705110;29;19934;-79
2022/01/06 14:01:02;;;;;;;;;;;3.70;84.80;;;;;;4452543;31;19940;-80
2022/01/06 14:08:37;;;;;;;;;;;3.60;85.60;;;;;;5192593;27;19937;-80
2022/01/06 14:11:04;;;;;;;;;;;3.50;86.40;;;;;;5114119;28;19923;-82
2022/01/06 14:13:31;;;;;;;;;;;;;;;;;;5113986;28;19938;-82
2022/01/06 14:15:58;;;;;;;;;;;;;;;;;;5031430;28;19952;-83
2022/01/06 14:18:25;;;;;;;;;;;;;;;;;;4940262;28;19943;-81
2022/01/06 14:20:52;;;;;;;;;;;;;;;;;;4818851;29;19929;-82
2022/01/06 14:23:19;;;;;;;;;;;;;;;;;;4685586;29;19933;-81
2022/01/06 14:28:26;;;;;;;;;;;;;;;;;;5178048;27;19926;-81
2022/01/06 14:30:53;;;;;;;;;;;;;;;;;;5132801;27;19924;-85
2022/01/06 14:33:20;;;;;;;;;;;;;;;;;;5090982;28;19932;-84
2022/01/06 14:35:48;;;;;;;;;;;;;;;;;;5045678;28;19925;-81
2022/01/06 14:38:15;;;;;;;;;;;;;;;;;;4962426;28;19931;-84
2022/01/06 14:40:42;;;;;;;;;;;;;;;;;;4784643;29;19932;-85
2022/01/06 14:43:09;;;;;;;;;;;;;;;;;;4580275;30;19936;-84
2022/01/06 14:52:40;;;;;;;;;;;3.00;99.30;;;;;;5163620;27;19926;-83
2022/01/06 14:55:07;;;;;;;;;;;2.90;99.90;;;;;;5100088;28;19924;-88
2022/01/06 14:57:34;;;;;;;;;;;2.80;99.90;;;;;;5100750;28;19923;-83
2022/01/06 15:00:01;;;;;;;;;;;2.80;99.90;;;;;;5025426;28;19939;-79
2022/01/06 15:02:28;;;;;;;;;;;2.60;99.90;;;;;;4958173;28;19928;-84
2022/01/06 15:04:55;;;;;;;;;;;2.50;99.90;;;;;;4796660;29;19938;-83
2022/01/06 15:07:21;;;;;;;;;;;2.50;99.90;;;;;;4483525;30;19938;-84
2022/01/06 15:14:49;;;;;;;;;;;2.60;99.90;;;;;;5165594;27;19925;-81
2022/01/06 15:17:16;;;;;;;;;;;2.50;99.90;;;;;;5116739;27;19923;-80
2022/01/06 15:19:42;;;;;;;;;;;2.50;99.90;;;;;;5108448;27;19938;-82
2022/01/06 15:22:09;;;;;;;;;;;2.50;99.90;;;;;;5053609;28;19925;-79
2022/01/06 15:24:36;;;;;;;;;;;2.40;99.90;;;;;;4980428;28;19927;-80
2022/01/06 15:27:03;;;;;;;;;;;2.40;99.90;;;;;;4843274;29;19931;-82
2022/01/06 15:29:29;;;;;;;;;;;2.40;99.90;;;;;;4614088;30;19936;-82
2022/01/06 15:37:08;;;;;;;;;;;2.20;99.90;;;;;;5143741;27;19931;-81
2022/01/06 15:39:35;;;;;;;;;;;2.20;99.90;;;;;;5074650;28;19924;-83
2022/01/06 15:42:01;;;;;;;;;;;2.20;99.90;;;;;;5051839;28;19951;-80
2022/01/06 15:44:28;;;;;;;;;;;2.20;99.90;;;;;;5029614;28;19944;-80
2022/01/06 15:46:54;;;;;;;;;;;2.10;99.90;;;;;;5022604;28;19936;-80
2022/01/06 15:49:21;;;;;;;;;;;2.10;99.90;;;;;;4922402;28;19936;-79
2022/01/06 15:51:48;;;;;;;;;;;2.10;99.90;;;;;;4669778;29;19934;-83
2022/01/06 15:59:25;;;;;;;;;;;2.10;99.90;;;;;;5179329;27;19930;-78
2022/01/06 16:07:21;;;;;;;;;;;2.20;99.90;;;;;;5023196;28;19933;-76
2022/01/06 16:09:49;;;;;;;;;;;2.20;99.90;;;;;;4901656;29;19939;-78
2022/01/06 16:12:15;;;;;;;;;;;2.20;99.90;;;;;;4709393;29;19933;-83
2022/01/06 16:14:42;;;;;;;;;;;2.20;99.90;;;;;;4475565;31;19941;-84
2022/01/06 16:22:14;;;;;;;;;;;2.10;99.90;;;;;;5183768;27;19926;-80
2022/01/06 16:24:40;;;;;;;;;;;2.10;99.90;;;;;;5131958;27;19924;-80
2022/01/06 16:27:07;;;;;;;;;;;2.10;99.90;;;;;;5122275;28;19924;-80
2022/01/06 16:29:34;;;;;;;;;;;2.00;99.90;;;;;;5100359;28;19951;-80
2022/01/06 16:32:12;;;;;;;;;;;2.00;99.90;;;;;;5042354;28;19933;-79
2022/01/06 16:34:38;;;;;;;;;;;1.90;99.90;;;;;;4977609;28;19927;-80
2022/01/06 16:37:05;;;;;;;;;;;1.90;99.90;;;;;;4774263;29;19940;-83
2022/01/06 16:46:09;;;;;;;;;;;1.80;99.90;;;;;;5174942;27;19925;-81
2022/01/06 16:48:36;;;;;;;;;;;1.80;99.90;;;;;;5133606;27;19930;-84
2022/01/06 16:51:02;;;;;;;;;;;1.80;99.90;;;;;;5130130;27;19930;-81
2022/01/06 16:53:29;;;;;;;;;;;1.80;99.90;;;;;;5096889;28;19931;-81
2022/01/06 16:55:56;;;;;;;;;;;1.80;99.90;;;;;;5052976;28;19929;-83
2022/01/06 16:58:23;;;;;;;;;;;1.80;99.90;;;;;;4980217;28;19928;-86
2022/01/06 17:00:51;;;;;;;;;;;1.80;99.90;;;;;;4694631;29;19934;-85
2022/01/06 17:08:21;;;;;;;;;;;1.70;99.90;;;;;;5167686;27;19933;-85
2022/01/06 17:10:48;;;;;;;;;;;1.80;99.90;;;;;;5103966;28;19931;-84
2022/01/06 17:13:15;;;;;;;;;;;1.90;99.90;;;;;;5085603;28;19948;-81
2022/01/06 17:15:41;;;;;;;;;;;1.90;99.90;;;;;;5076344;28;19924;-84
2022/01/06 17:18:08;;;;;;;;;;;1.80;99.90;;;;;;5030470;28;19930;-80
2022/01/06 17:20:35;;;;;;;;;;;1.80;99.90;;;;;;4796013;29;19938;-80
2022/01/06 17:23:02;;;;;;;;;;;1.80;99.90;;;;;;4539552;30;19943;-81
2022/01/06 17:30:40;;;;;;;;;;;1.80;99.90;;;;;;5174221;27;19926;-80
2022/01/06 17:33:08;;;;;;;;;;;1.80;99.90;;;;;;5085548;28;19931;-81
2022/01/06 17:35:34;;;;;;;;;;;1.70;99.90;;;;;;5059376;28;19924;-80
2022/01/06 17:38:01;;;;;;;;;;;1.70;99.90;;;;;;5073065;28;19933;-83
2022/01/06 17:40:27;;;;;;;;;;;1.80;99.90;;;;;;4935838;28;19928;-81
2022/01/06 17:42:54;;;;;;;;;;;1.80;99.90;;;;;;4774948;29;19954;-82
2022/01/06 17:45:21;;;;;;;;;;;1.70;99.90;;;;;;4509332;31;19936;-85
2022/01/06 17:52:52;;;;;;;;;;;1.70;99.90;;;;;;5159164;27;19926;-82
2022/01/06 17:55:19;;;;;;;;;;;1.70;99.90;;;;;;5116014;27;19931;-84
2022/01/06 17:57:46;;;;;;;;;;;1.80;99.90;;;;;;5095448;28;19932;-82
2022/01/06 18:00:13;;;;;;;;;;;1.80;99.90;;;;;;5101122;27;19923;-86
2022/01/06 18:02:42;;;;;;;;;;;1.80;99.90;;;;;;5058550;28;19933;-78
2022/01/06 18:05:12;;;;;;;;;;;1.80;99.90;;;;;;4844424;29;19931;-84
2022/01/06 18:07:43;;;;;;;;;;;1.80;99.90;;;;;;4556436;30;19935;-88
2022/01/06 18:13:20;;;;;;;;;;;1.80;99.90;;;;;;5163825;27;19930;-82
2022/01/06 18:15:47;;;;;;;;;;;1.80;99.90;;;;;;5135089;27;19924;-82
2022/01/06 18:18:14;;;;;;;;;;;1.80;99.90;;;;;;5116113;27;19946;-80
2022/01/06 18:20:40;;;;;;;;;;;1.70;99.90;;;;;;5086287;28;19925;-82
2022/01/06 18:23:07;;;;;;;;;;;1.60;99.90;;;;;;4952156;28;19927;-81
2022/01/06 18:25:33;;;;;;;;;;;1.60;99.90;;;;;;4832206;29;19931;-81
2022/01/06 18:28:00;;;;;;;;;;;1.50;99.90;;;;;;4675394;30;19932;-82
2022/01/06 18:35:32;;;;;;;;;;;1.50;99.90;;;;;;5174367;27;19926;-80
2022/01/06 18:37:58;;;;;;;;;;;1.40;99.90;;;;;;5120606;27;19923;-82
2022/01/06 18:40:25;;;;;;;;;;;1.40;99.90;;;;;;5155088;27;19930;-83
2022/01/06 18:42:54;;;;;;;;;;;1.40;99.90;;;;;;5129252;28;19924;-83
2022/01/06 18:45:20;;;;;;;;;;;1.30;99.90;;;;;;5058179;28;19920;-81
2022/01/06 18:47:47;;;;;;;;;;;1.30;99.90;;;;;;4912134;28;19920;-78
2022/01/06 18:50:14;;;;;;;;;;;1.30;99.90;;;;;;4651734;30;19934;-79